Time;durP1;ratioP1;P1;durP2;ratioP2;P2;SDS_P1;SDS_P2;PMS_P1;PMS_P2;Temp;Humidity;BMP_temperature;BMP_pressure;BME280_temperature;BME280_humidity;BME280_pressure;Samples;Min_cycle;Max_cycle;Signal;HPM_P1;HPM_P2
2022/05/07 00:01:44;;;;;;;14.40;8.50;;;;;;;6.11;89.98;100027.64;103619;1303;24967;-24
2022/05/07 00:04:13;;;;;;;16.70;9.20;;;;;;;6.06;89.97;100031.38;103570;1303;23612;-28
2022/05/07 00:06:42;;;;;;;13.60;8.30;;;;;;;5.98;90.33;100027.34;103571;1303;24217;-28
2022/05/07 00:09:11;;;;;;;9.90;6.90;;;;;;;5.98;96.10;100030.73;103597;1301;22510;-25
2022/05/07 00:11:41;;;;;;;11.30;6.50;;;;;;;5.90;99.79;100026.17;103539;1303;25313;-30
2022/05/07 00:14:10;;;;;;;18.00;9.60;;;;;;;5.81;100.00;100027.71;103565;1302;24243;-26
2022/05/07 00:19:11;;;;;;;14.60;12.40;;;;;;;5.79;100.00;100025.63;103579;1303;24212;-24
2022/05/07 00:21:40;;;;;;;15.80;9.40;;;;;;;5.77;99.91;100023.52;103506;1303;25005;-24
2022/05/07 00:24:09;;;;;;;15.00;9.20;;;;;;;5.73;97.53;100027.45;103593;1303;24218;-27
2022/05/07 00:26:38;;;;;;;10.70;7.20;;;;;;;5.69;96.75;100020.11;103623;1303;22793;-24
2022/05/07 00:29:07;;;;;;;9.70;6.70;;;;;;;5.65;94.47;100019.00;103605;1303;23980;-24
2022/05/07 00:31:36;;;;;;;12.90;9.80;;;;;;;5.60;93.47;100021.41;103545;1303;22538;-28
2022/05/07 00:34:05;;;;;;;18.20;8.40;;;;;;;5.54;93.13;100023.23;103563;1302;23837;-28
2022/05/07 00:36:34;;;;;;;14.10;9.00;;;;;;;5.49;95.46;100020.08;103563;1303;22793;-25
2022/05/07 00:39:03;;;;;;;17.90;8.90;;;;;;;5.46;99.60;100023.88;103550;1302;25217;-24
2022/05/07 00:41:32;;;;;;;10.60;7.80;;;;;;;5.43;100.00;100024.04;103535;1303;23530;-25
2022/05/07 00:44:01;;;;;;;18.10;12.10;;;;;;;5.42;99.75;100020.73;103542;1302;23647;-24
2022/05/07 00:46:30;;;;;;;16.50;9.30;;;;;;;5.39;98.11;100022.05;103571;1301;22510;-28
2022/05/07 00:48:59;;;;;;;16.70;10.30;;;;;;;5.45;100.00;100017.05;103574;1303;22502;-29
2022/05/07 00:54:03;;;;;;;19.90;7.80;;;;;;;5.41;100.00;100023.52;103532;1301;24217;-24
2022/05/07 00:56:32;;;;;;;34.40;13.70;;;;;;;5.38;100.00;100022.88;103554;1303;25094;-24
2022/05/07 00:59:02;;;;;;;25.30;12.20;;;;;;;5.40;100.00;100020.05;103517;1303;22496;-24
2022/05/07 01:01:31;;;;;;;37.20;15.50;;;;;;;5.38;100.00;100019.66;103555;1303;24455;-28
2022/05/07 01:04:00;;;;;;;23.90;12.60;;;;;;;5.35;100.00;100021.54;103538;1303;23607;-28
2022/05/07 01:06:30;;;;;;;26.70;12.90;;;;;;;5.35;100.00;100020.17;103548;1303;23862;-25
2022/05/07 01:08:59;;;;;;;24.40;12.60;;;;;;;5.34;100.00;100019.89;103527;1303;25331;-24
2022/05/07 01:11:28;;;;;;;23.20;12.60;;;;;;;5.32;100.00;100013.69;103523;1301;22522;-28
2022/05/07 01:13:57;;;;;;;17.10;11.10;;;;;;;5.29;98.72;100015.02;103585;1303;22496;-28
2022/05/07 01:16:26;;;;;;;18.30;9.50;;;;;;;5.23;96.67;100017.73;103518;1303;23631;-28
2022/05/07 01:18:55;;;;;;;15.80;7.60;;;;;;;5.16;96.58;100022.36;103358;1303;24023;-25
2022/05/07 01:21:24;;;;;;;8.90;7.40;;;;;;;5.10;96.69;100020.70;103555;1303;24278;-28
2022/05/07 01:23:53;;;;;;;12.20;7.10;;;;;;;5.08;96.60;100019.84;103569;1303;25002;-24
2022/05/07 01:26:23;;;;;;;13.50;7.20;;;;;;;5.06;96.66;100020.38;103577;1303;24996;-28
2022/05/07 01:28:58;;;;;;;11.40;7.50;;;;;;;5.05;96.79;100017.01;103581;1303;23867;-24
2022/05/07 01:31:28;;;;;;;12.80;7.40;;;;;;;5.05;96.14;100017.99;103579;1303;23604;-25
2022/05/07 01:33:56;;;;;;;13.50;6.90;;;;;;;4.98;95.37;100021.85;103542;1303;23323;-24
2022/05/07 01:36:25;;;;;;;8.60;6.30;;;;;;;4.92;95.29;100020.19;103580;1303;24948;-24
2022/05/07 01:38:54;;;;;;;15.20;6.70;;;;;;;4.88;95.53;100016.60;103519;1301;22496;-24
2022/05/07 01:41:23;;;;;;;7.80;6.30;;;;;;;4.84;95.88;100015.94;103531;1302;22720;-28
2022/05/07 01:43:53;;;;;;;9.00;7.00;;;;;;;4.84;97.30;100018.64;103448;1302;24208;-24
2022/05/07 01:48:55;;;;;;;9.40;5.70;;;;;;;4.79;100.00;100012.73;103560;1303;23715;-25
2022/05/07 01:51:24;;;;;;;14.00;7.90;;;;;;;4.81;100.00;100013.71;103567;1303;24023;-24
2022/05/07 01:53:53;;;;;;;13.00;7.70;;;;;;;4.77;100.00;100014.27;103524;1303;23617;-24
2022/05/07 01:56:22;;;;;;;11.40;9.00;;;;;;;4.72;99.91;100012.34;103532;1302;23631;-28
2022/05/07 01:58:51;;;;;;;19.60;9.20;;;;;;;4.68;99.00;100010.30;103566;1303;23799;-24
2022/05/07 02:01:20;;;;;;;14.10;9.30;;;;;;;4.65;98.77;100010.59;103577;1302;22740;-27
2022/05/07 02:03:51;;;;;;;11.30;7.90;;;;;;;4.64;98.04;100008.06;103558;1303;25434;-25
2022/05/07 02:06:20;;;;;;;16.20;10.00;;;;;;;4.62;97.92;100011.07;103577;1303;24212;-24
2022/05/07 02:08:49;;;;;;;14.60;8.90;;;;;;;4.62;98.14;100014.63;103536;1302;24990;-26
2022/05/07 02:11:18;;;;;;;17.80;9.50;;;;;;;4.58;98.10;100013.22;103252;1303;24237;-26
2022/05/07 02:13:47;;;;;;;13.90;8.90;;;;;;;4.54;97.71;100009.33;103573;1303;23587;-29
2022/05/07 02:16:16;;;;;;;15.10;9.10;;;;;;;4.53;98.38;100009.30;103522;1303;24396;-29
2022/05/07 02:18:45;;;;;;;17.40;10.80;;;;;;;4.55;99.18;100007.13;103564;1303;23737;-28
2022/05/07 02:21:14;;;;;;;21.60;10.70;;;;;;;4.52;98.38;100008.09;103546;1303;23910;-28
2022/05/07 02:23:43;;;;;;;15.60;8.80;;;;;;;4.51;98.00;100009.43;103503;1303;22501;-28
2022/05/07 02:26:12;;;;;;;12.10;8.80;;;;;;;4.51;98.05;100006.48;103546;1303;22492;-24
2022/05/07 02:28:41;;;;;;;15.00;9.40;;;;;;;4.49;97.02;100009.27;103582;1303;23796;-28
2022/05/07 02:31:10;;;;;;;16.10;9.80;;;;;;;4.43;96.77;100012.08;103479;1303;24259;-24
2022/05/07 02:33:39;;;;;;;12.80;8.40;;;;;;;4.42;97.45;100011.14;103531;1303;23634;-26
2022/05/07 02:36:08;;;;;;;13.90;8.20;;;;;;;4.42;97.47;100011.48;103531;1303;23633;-28
2022/05/07 02:38:38;;;;;;;13.70;8.50;;;;;;;4.40;96.57;100016.98;103517;1303;24234;-28
2022/05/07 02:43:40;;;;;;;15.10;9.40;;;;;;;4.37;96.24;100010.06;103565;1303;23798;-24
2022/05/07 02:46:10;;;;;;;15.40;9.70;;;;;;;4.33;96.27;100011.50;103536;1303;23043;-28
2022/05/07 02:48:40;;;;;;;14.10;8.30;;;;;;;4.32;96.67;100009.05;103558;1303;23798;-30
2022/05/07 02:51:09;;;;;;;16.00;8.50;;;;;;;4.33;97.02;100007.22;103527;1303;22736;-28
2022/05/07 02:53:38;;;;;;;19.60;10.40;;;;;;;4.33;96.77;100005.13;103535;1303;25018;-26
2022/05/07 02:56:07;;;;;;;14.20;9.00;;;;;;;4.28;96.47;100009.97;103590;1302;23670;-28
2022/05/07 02:58:36;;;;;;;13.70;10.10;;;;;;;4.25;97.05;100013.30;103579;1303;25335;-24
2022/05/07 03:01:05;;;;;;;14.60;9.20;;;;;;;4.24;97.59;100013.05;103546;1303;23488;-27
2022/05/07 03:03:34;;;;;;;14.40;9.70;;;;;;;4.22;97.14;100016.36;103561;1303;23857;-28
2022/05/07 03:06:03;;;;;;;17.40;9.50;;;;;;;4.19;96.86;100013.95;103661;1303;23122;-25
2022/05/07 03:08:32;;;;;;;19.80;9.90;;;;;;;4.18;97.10;100012.55;103506;1303;22930;-24
2022/05/07 03:11:01;;;;;;;14.10;9.40;;;;;;;4.14;96.92;100012.98;103507;1303;23609;-24
2022/05/07 03:13:30;;;;;;;21.30;10.00;;;;;;;4.14;96.88;100011.79;103498;1303;25005;-24
2022/05/07 03:15:59;;;;;;;16.50;8.90;;;;;;;4.13;96.73;100015.92;103584;1303;23611;-28
2022/05/07 03:18:28;;;;;;;15.30;9.50;;;;;;;4.15;97.54;100013.52;103512;1303;22511;-30
2022/05/07 03:20:57;;;;;;;37.00;9.10;;;;;;;4.17;97.50;100011.68;103500;1303;25015;-28
2022/05/07 03:23:26;;;;;;;17.20;10.00;;;;;;;4.20;97.19;100007.70;103489;1303;22499;-24
2022/05/07 03:25:55;;;;;;;15.00;9.10;;;;;;;4.25;96.87;100010.79;103558;1303;25005;-26
2022/05/07 03:28:24;;;;;;;14.50;8.30;;;;;;;4.38;97.98;100009.02;103477;1303;22481;-24
2022/05/07 03:30:53;;;;;;;15.40;9.30;;;;;;;4.58;98.61;100007.33;103566;1303;22496;-28
2022/05/07 03:33:22;;;;;;;13.00;8.90;;;;;;;4.78;98.04;100005.91;103609;1303;24208;-28
2022/05/07 03:35:51;;;;;;;15.60;8.40;;;;;;;4.97;97.97;100007.81;103579;1302;24183;-30
2022/05/07 03:38:20;;;;;;;16.50;9.30;;;;;;;5.19;98.09;100011.03;103552;1303;24247;-25
2022/05/07 03:40:49;;;;;;;15.30;8.80;;;;;;;5.45;98.25;100009.73;103506;1303;24212;-28
2022/05/07 03:43:18;;;;;;;13.30;8.50;;;;;;;5.73;98.29;100009.13;103538;1303;25018;-28
2022/05/07 03:45:47;;;;;;;11.50;8.10;;;;;;;6.05;97.80;100007.62;103523;1303;22769;-28
2022/05/07 03:48:16;;;;;;;9.80;7.10;;;;;;;6.31;97.63;100006.80;103573;1303;22486;-28
2022/05/07 03:50:45;;;;;;;9.90;8.10;;;;;;;6.63;97.27;100006.98;103603;1303;23609;-31
2022/05/07 03:55:46;;;;;;;13.90;7.40;;;;;;;6.96;95.27;100007.89;103617;1303;22636;-25
2022/05/07 03:58:16;;;;;;;15.50;7.50;;;;;;;7.27;95.02;100016.03;103577;1303;23610;-24
2022/05/07 04:00:45;;;;;;;9.20;6.10;;;;;;;7.55;93.39;100017.91;103513;1303;23152;-28
2022/05/07 04:03:14;;;;;;;7.80;6.40;;;;;;;7.83;92.59;100020.67;103602;1303;23900;-23
2022/05/07 04:05:43;;;;;;;7.60;6.10;;;;;;;8.01;91.09;100021.05;103586;1303;23853;-29
2022/05/07 04:08:12;;;;;;;7.20;5.80;;;;;;;8.10;90.29;100025.41;103518;1302;23599;-29
2022/05/07 04:10:43;;;;;;;9.40;6.30;;;;;;;8.04;88.72;100030.00;103644;1303;23608;-25
2022/05/07 04:13:12;;;;;;;18.60;7.60;;;;;;;8.18;88.86;100034.20;103577;1303;26247;-24
2022/05/07 04:15:43;;;;;;;8.10;4.90;;;;;;;7.89;87.59;100043.71;103518;1303;23768;-26
2022/05/07 04:18:12;;;;;;;6.90;5.40;;;;;;;7.18;87.84;100044.57;103334;1303;290819;-27
2022/05/07 04:20:41;;;;;;;9.40;6.40;;;;;;;6.63;89.53;100045.64;103623;1303;23946;-30
2022/05/07 04:23:10;;;;;;;8.80;6.60;;;;;;;6.71;90.39;100048.82;103578;1303;22502;-28
2022/05/07 04:25:40;;;;;;;8.70;6.20;;;;;;;6.37;89.68;100052.95;103506;1303;25072;-28
2022/05/07 04:28:09;;;;;;;11.80;6.30;;;;;;;6.27;89.87;100053.26;103318;1303;24298;-28
2022/05/07 04:30:38;;;;;;;13.70;5.40;;;;;;;6.07;90.32;100053.86;103557;1303;22495;-28
2022/05/07 04:33:07;;;;;;;10.80;6.20;;;;;;;5.83;92.11;100057.19;103520;1303;23812;-28
2022/05/07 04:35:36;;;;;;;11.50;7.60;;;;;;;5.95;92.51;100059.16;103369;1303;23734;-29
2022/05/07 04:38:05;;;;;;;11.20;6.90;;;;;;;5.97;92.61;100060.66;103330;1303;24219;-28
2022/05/07 04:40:34;;;;;;;10.30;7.20;;;;;;;6.00;92.81;100059.46;103632;1303;24017;-25
2022/05/07 04:43:04;;;;;;;7.60;4.90;;;;;;;6.26;93.08;100055.52;103606;1303;24252;-28
2022/05/07 04:45:34;;;;;;;9.00;5.50;;;;;;;6.52;93.60;100055.26;103581;1301;22504;-29
2022/05/07 04:48:03;;;;;;;7.10;5.80;;;;;;;6.88;94.15;100052.80;103322;1303;22600;-27
2022/05/07 04:50:32;;;;;;;7.80;4.90;;;;;;;7.33;93.88;100052.59;103584;1303;22505;-30
2022/05/07 04:53:01;;;;;;;6.70;4.60;;;;;;;7.78;93.69;100056.46;103564;1302;24245;-29
2022/05/07 04:55:30;;;;;;;12.40;5.80;;;;;;;8.17;93.36;100055.82;103581;1303;24298;-29
2022/05/07 04:57:59;;;;;;;12.30;6.30;;;;;;;8.50;92.45;100056.24;103550;1303;22882;-30
2022/05/07 05:00:28;;;;;;;8.40;5.40;;;;;;;8.81;92.13;100053.88;103608;1303;22907;-31
2022/05/07 05:02:57;;;;;;;8.60;5.50;;;;;;;9.04;91.24;100049.43;103539;1303;24218;-26
2022/05/07 05:05:26;;;;;;;7.20;5.30;;;;;;;9.18;90.83;100053.97;103425;1303;24236;-25
2022/05/07 05:07:55;;;;;;;6.70;5.10;;;;;;;9.54;90.95;100052.02;103490;1303;23631;-25
2022/05/07 05:10:26;;;;;;;8.80;5.70;;;;;;;9.87;89.60;100055.84;103838;1303;25035;-30
2022/05/07 05:12:54;;;;;;;7.50;5.50;;;;;;;10.05;89.44;100054.60;103567;1303;23955;-29
2022/05/07 05:15:24;;;;;;;8.60;5.70;;;;;;;10.35;88.11;100055.59;103660;1302;24183;-25
2022/05/07 05:17:53;;;;;;;11.20;6.80;;;;;;;10.46;87.61;100057.70;103556;1303;22658;-25
2022/05/07 05:20:22;;;;;;;7.20;5.10;;;;;;;10.73;88.38;100055.63;103573;1303;22510;-28
2022/05/07 05:22:51;;;;;;;15.50;8.20;;;;;;;11.05;88.56;100055.05;103562;1303;24378;-25
2022/05/07 05:25:20;;;;;;;12.80;8.40;;;;;;;11.35;88.16;100060.17;103561;1303;22508;-28
2022/05/07 05:27:49;;;;;;;16.80;9.60;;;;;;;11.60;87.66;100061.46;103569;1302;25011;-28
2022/05/07 05:30:18;;;;;;;21.60;9.60;;;;;;;11.78;86.62;100064.65;103549;1302;24189;-28
2022/05/07 05:32:47;;;;;;;12.10;7.70;;;;;;;11.99;86.14;100068.16;103635;1301;22515;-28
2022/05/07 05:35:16;;;;;;;14.90;7.70;;;;;;;12.24;85.45;100071.45;103573;1303;24230;-24
2022/05/07 05:37:45;;;;;;;19.00;9.30;;;;;;;12.50;84.57;100072.63;103532;1303;24304;-28
2022/05/07 05:40:14;;;;;;;12.10;8.90;;;;;;;12.65;83.32;100074.89;103559;1303;23738;-25
2022/05/07 05:42:43;;;;;;;20.90;11.90;;;;;;;13.02;83.10;100074.65;103567;1303;24287;-25
2022/05/07 05:45:12;;;;;;;22.80;12.60;;;;;;;13.35;82.62;100071.50;103511;1303;23609;-24
2022/05/07 05:47:41;;;;;;;16.30;10.10;;;;;;;13.63;81.90;100071.67;103635;1303;24995;-28
2022/05/07 05:50:10;;;;;;;20.30;10.50;;;;;;;14.01;81.54;100074.61;103483;1303;22532;-28
2022/05/07 05:52:39;;;;;;;17.70;10.10;;;;;;;14.51;81.34;100075.02;103575;1303;23885;-28
2022/05/07 05:55:08;;;;;;;10.90;6.70;;;;;;;14.84;79.01;100075.27;103570;1303;23593;-30
2022/05/07 05:57:38;;;;;;;10.00;6.80;;;;;;;15.00;78.24;100076.77;103545;1303;22768;-30
2022/05/07 06:00:07;;;;;;;16.00;7.50;;;;;;;15.08;78.43;100074.66;103498;1303;25065;-25
2022/05/07 06:02:37;;;;;;;9.30;6.20;;;;;;;15.33;77.49;100071.65;103530;1302;25251;-24
2022/05/07 06:05:06;;;;;;;12.20;8.00;;;;;;;15.66;77.91;100078.66;103589;1303;23478;-28
2022/05/07 06:07:35;;;;;;;11.80;8.00;;;;;;;15.94;76.56;100078.41;103520;1303;22867;-24
2022/05/07 06:10:05;;;;;;;8.70;6.50;;;;;;;16.22;76.02;100081.61;103579;1303;24995;-28
2022/05/07 06:12:34;;;;;;;15.20;9.30;;;;;;;16.50;74.40;100085.86;103549;1303;23593;-24
2022/05/07 06:15:05;;;;;;;13.50;9.00;;;;;;;16.70;72.11;100085.81;103592;1303;22498;-29
2022/05/07 06:17:35;;;;;;;10.90;7.80;;;;;;;16.76;68.66;100086.40;103506;1303;23609;-25
2022/05/07 06:20:04;;;;;;;21.90;7.70;;;;;;;16.95;69.90;100085.20;103537;1303;22788;-27
2022/05/07 06:22:33;;;;;;;10.20;6.90;;;;;;;17.31;68.03;100082.27;103534;1303;22495;-27
2022/05/07 06:27:35;;;;;;;12.30;5.70;;;;;;;18.08;61.87;100081.27;103632;1303;24249;-24
2022/05/07 06:30:05;;;;;;;11.10;5.70;;;;;;;18.23;61.05;100084.83;103497;1303;24336;-31
2022/05/07 06:32:35;;;;;;;5.90;4.90;;;;;;;18.38;58.79;100082.73;103563;1303;24196;-27
2022/05/07 06:35:05;;;;;;;15.50;7.00;;;;;;;18.35;58.66;100086.30;103579;1303;23785;-28
2022/05/07 06:37:34;;;;;;;13.30;5.80;;;;;;;18.46;58.41;100086.27;103517;1303;24233;-24
2022/05/07 06:40:05;;;;;;;8.10;6.30;;;;;;;18.44;57.48;100086.54;103565;1303;22521;-30
2022/05/07 06:42:35;;;;;;;8.00;6.00;;;;;;;18.50;57.46;100085.79;103570;1303;22597;-27
2022/05/07 06:45:04;;;;;;;8.50;6.20;;;;;;;18.41;57.59;100084.16;103438;1303;25076;-29
2022/05/07 06:47:33;;;;;;;12.50;5.50;;;;;;;18.44;56.91;100087.71;103526;1303;24990;-25
2022/05/07 06:50:02;;;;;;;9.60;4.70;;;;;;;18.43;56.84;100086.56;103504;1303;23794;-29
2022/05/07 06:52:31;;;;;;;12.80;6.40;;;;;;;18.52;56.90;100088.73;103578;1303;23610;-29
2022/05/07 06:55:00;;;;;;;8.20;5.40;;;;;;;18.76;56.44;100089.94;103555;1303;22500;-24
2022/05/07 06:57:29;;;;;;;8.10;5.20;;;;;;;19.00;56.42;100092.63;103576;1303;22511;-29
2022/05/07 06:59:59;;;;;;;4.40;3.80;;;;;;;19.25;55.94;100090.60;103559;1303;23137;-25
2022/05/07 07:02:29;;;;;;;7.30;5.20;;;;;;;19.18;51.81;100091.52;103519;1303;23954;-29
2022/05/07 07:05:00;;;;;;;5.20;3.50;;;;;;;19.34;53.59;100091.57;103556;1303;24370;-28
2022/05/07 07:07:29;;;;;;;2.80;2.10;;;;;;;19.37;48.79;100093.11;103497;1303;24986;-29
2022/05/07 07:09:59;;;;;;;3.20;2.40;;;;;;;19.19;48.17;100091.34;103558;1303;25018;-29
2022/05/07 07:12:29;;;;;;;6.90;2.60;;;;;;;19.31;49.86;100095.44;103501;1303;23596;-25
2022/05/07 07:14:58;;;;;;;3.00;2.00;;;;;;;19.40;49.38;100096.50;103487;1302;25062;-28
2022/05/07 07:17:27;;;;;;;25.70;2.30;;;;;;;19.52;49.26;100095.74;103580;1303;24298;-28
2022/05/07 07:19:56;;;;;;;4.70;3.10;;;;;;;20.06;50.56;100096.19;103537;1303;24429;-36
2022/05/07 07:22:25;;;;;;;11.50;6.10;;;;;;;20.28;46.01;100095.61;103600;1303;22510;-26
2022/05/07 07:24:54;;;;;;;5.00;3.50;;;;;;;20.38;46.96;100095.41;103559;1303;24232;-30
2022/05/07 07:27:23;;;;;;;10.90;2.80;;;;;;;20.52;47.88;100096.02;103548;1303;22509;-26
2022/05/07 07:29:52;;;;;;;14.50;6.70;;;;;;;20.73;46.96;100094.73;103565;1303;22512;-26
2022/05/07 07:32:21;;;;;;;5.90;3.10;;;;;;;20.42;45.26;100091.14;103522;1303;22492;-28
2022/05/07 07:34:51;;;;;;;5.30;2.50;;;;;;;20.18;45.94;100090.61;103555;1303;24233;-24
2022/05/07 07:37:20;;;;;;;4.20;2.80;;;;;;;20.38;46.73;100088.70;103524;1303;22594;-24
2022/05/07 07:39:49;;;;;;;3.40;2.30;;;;;;;20.72;46.40;100088.80;103561;1303;25327;-24
2022/05/07 07:42:20;;;;;;;3.50;2.40;;;;;;;21.23;46.44;100084.40;103613;1303;23564;-28
2022/05/07 07:47:56;;;;;;;2.50;2.20;;;;;;;-98.09;8.47;20017.34;100833;1303;1003028;-28
2022/05/07 07:50:11;;;;;;;2.40;1.50;;;;;;;-128.00;-1.00;-1.00;100089;1303;1003016;-24
2022/05/07 07:52:39;;;;;;;1.90;1.20;;;;;;;-128.00;-1.00;-1.00;100117;1303;1003445;-24
2022/05/07 07:55:08;;;;;;;5.60;1.60;;;;;;;-128.00;-1.00;-1.00;100134;1303;1004081;-28
2022/05/07 07:57:37;;;;;;;2.40;2.00;;;;;;;-128.00;-1.00;-1.00;100037;1303;1003459;-28
2022/05/07 08:00:07;;;;;;;6.40;2.70;;;;;;;-128.00;-1.00;-1.00;100028;1303;1003937;-28
2022/05/07 08:02:46;;;;;;;3.10;1.60;;;;;;;-128.00;-1.00;-1.00;100038;1303;1004220;-28
2022/05/07 08:05:17;;;;;;;3.30;2.10;;;;;;;-128.00;-1.00;-1.00;100046;1303;1003249;-28
2022/05/07 08:12:51;;;;;;;4.80;2.20;;;;;;;-128.00;-1.00;-1.00;100087;1303;1003844;-28
2022/05/07 08:15:23;;;;;;;5.70;2.10;;;;;;;-128.00;-1.00;-1.00;100056;1303;1004124;-24
2022/05/07 08:17:52;;;;;;;7.50;2.10;;;;;;;-128.00;-1.00;-1.00;100150;1303;1003410;-28
2022/05/07 08:20:21;;;;;;;4.10;1.10;;;;;;;-128.00;-1.00;-1.00;100021;1303;1004252;-28
2022/05/07 08:22:50;;;;;;;3.10;2.40;;;;;;;-128.00;-1.00;-1.00;100138;1303;1003244;-24
2022/05/07 08:25:19;;;;;;;1.90;1.30;;;;;;;-128.00;-1.00;-1.00;100039;1303;1002957;-24
2022/05/07 08:27:48;;;;;;;13.20;1.90;;;;;;;-128.00;-1.00;-1.00;100140;1303;1003878;-28
2022/05/07 08:30:17;;;;;;;2.20;1.70;;;;;;;-128.00;-1.00;-1.00;100112;1303;1004622;-24
2022/05/07 08:32:46;;;;;;;2.60;1.90;;;;;;;-128.00;-1.00;-1.00;100126;1303;1004131;-24
2022/05/07 08:35:15;;;;;;;1.90;1.40;;;;;;;-128.00;-1.00;-1.00;100109;1303;1003583;-28
2022/05/07 08:37:44;;;;;;;1.70;1.00;;;;;;;-128.00;-1.00;-1.00;100117;1303;1003142;-28
2022/05/07 08:40:16;;;;;;;8.20;4.30;;;;;;;-128.00;-1.00;-1.00;99888;1303;1003948;-25
2022/05/07 08:42:45;;;;;;;12.20;6.50;;;;;;;-128.00;-1.00;-1.00;100136;1303;1004099;-28
2022/05/07 08:45:15;;;;;;;1.40;1.00;;;;;;;-128.00;-1.00;-1.00;99984;1303;1003181;-28
2022/05/07 08:47:43;;;;;;;1.30;1.10;;;;;;;-128.00;-1.00;-1.00;100109;1303;1004028;-30
2022/05/07 08:50:13;;;;;;;1.90;1.00;;;;;;;-128.00;-1.00;-1.00;100137;1303;1003796;-28
2022/05/07 08:52:43;;;;;;;1.70;1.20;;;;;;;-128.00;-1.00;-1.00;100108;1303;1003009;-24
2022/05/07 08:55:13;;;;;;;1.10;0.60;;;;;;;-128.00;-1.00;-1.00;100120;1303;1004052;-27
2022/05/07 08:57:44;;;;;;;3.40;1.00;;;;;;;-128.00;-1.00;-1.00;100098;1303;1003301;-24
2022/05/07 09:00:14;;;;;;;2.00;1.40;;;;;;;-128.00;-1.00;-1.00;99989;1303;1003901;-24
2022/05/07 09:02:47;;;;;;;1.80;1.30;;;;;;;-128.00;-1.00;-1.00;100163;1303;1003397;-24
2022/05/07 09:05:18;;;;;;;2.30;1.00;;;;;;;-128.00;-1.00;-1.00;100151;1303;1003473;-24
2022/05/07 09:07:53;;;;;;;3.50;1.00;;;;;;;-128.00;-1.00;-1.00;100053;1303;1005382;-28
2022/05/07 09:10:24;;;;;;;1.90;1.20;;;;;;;-128.00;-1.00;-1.00;100219;1303;1002849;-28
2022/05/07 09:12:54;;;;;;;1.60;1.10;;;;;;;-128.00;-1.00;-1.00;100205;1303;1002680;-28
2022/05/07 09:15:23;;;;;;;1.60;1.00;;;;;;;-128.00;-1.00;-1.00;100107;1303;1002760;-25
2022/05/07 09:18:11;;;;;;;5.30;1.40;;;;;;;-128.00;-1.00;-1.00;100134;1303;1003363;-24
2022/05/07 09:20:55;;;;;;;2.10;1.50;;;;;;;-128.00;-1.00;-1.00;100229;1303;1003132;-24
2022/05/07 09:23:33;;;;;;;1.90;1.50;;;;;;;-128.00;-1.00;-1.00;100157;1303;1003043;-25
2022/05/07 09:26:23;;;;;;;3.40;2.90;;;;;;;-128.00;-1.00;-1.00;100016;1303;1003182;-28
2022/05/07 09:29:03;;;;;;;2.00;1.50;;;;;;;-128.00;-1.00;-1.00;99932;1303;1002946;-28
2022/05/07 09:31:41;;;;;;;2.10;1.10;;;;;;;-128.00;-1.00;-1.00;100161;1302;1003176;-28
2022/05/07 09:37:01;;;;;;;2.80;1.20;;;;;;;-128.00;-1.00;-1.00;100172;1302;1003622;-28
2022/05/07 09:39:39;;;;;;;1.30;0.80;;;;;;;-128.00;-1.00;-1.00;100169;1303;1003275;-28
2022/05/07 09:42:18;;;;;;;1.40;1.00;;;;;;;-128.00;-1.00;-1.00;100153;1303;1003561;-29
2022/05/07 09:44:55;;;;;;;3.00;1.40;;;;;;;-128.00;-1.00;-1.00;100077;1303;1002773;-28
2022/05/07 09:47:33;;;;;;;2.10;1.30;;;;;;;-128.00;-1.00;-1.00;100197;1303;1002655;-29
2022/05/07 09:58:15;;;;;;;14.50;1.00;;;;;;;-128.00;-1.00;-1.00;100173;1303;1003179;-24
2022/05/07 10:01:02;;;;;;;1.80;0.90;;;;;;;-128.00;-1.00;-1.00;100106;1303;1003659;-24
2022/05/07 10:03:43;;;;;;;0.90;0.70;;;;;;;-128.00;-1.00;-1.00;100141;1303;1003046;-28
2022/05/07 10:06:28;;;;;;;1.50;0.80;;;;;;;-128.00;-1.00;-1.00;100064;1303;1002965;-25
2022/05/07 10:09:12;;;;;;;1.90;0.70;;;;;;;-128.00;-1.00;-1.00;100155;1303;1003883;-29
2022/05/07 10:11:54;;;;;;;1.50;0.60;;;;;;;-128.00;-1.00;-1.00;100169;1303;1002561;-25
2022/05/07 10:14:32;;;;;;;2.50;0.70;;;;;;;-128.00;-1.00;-1.00;100213;1303;1003514;-29
2022/05/07 10:17:11;;;;;;;3.10;0.90;;;;;;;-128.00;-1.00;-1.00;100189;1303;1004409;-28
2022/05/07 10:19:50;;;;;;;1.20;0.80;;;;;;;-128.00;-1.00;-1.00;100137;1302;1002738;-25
2022/05/07 10:22:27;;;;;;;1.80;0.70;;;;;;;-128.00;-1.00;-1.00;100175;1303;1003300;-24
2022/05/07 10:25:10;;;;;;;0.80;0.70;;;;;;;-128.00;-1.00;-1.00;100118;1303;1003201;-28
2022/05/07 10:27:49;;;;;;;2.10;0.80;;;;;;;-128.00;-1.00;-1.00;99975;1303;1003020;-28
2022/05/07 10:30:26;;;;;;;5.00;0.80;;;;;;;-128.00;-1.00;-1.00;100017;1303;1003112;-28
2022/05/07 10:33:04;;;;;;;0.80;0.60;;;;;;;-128.00;-1.00;-1.00;100094;1303;1004162;-24
2022/05/07 10:35:40;;;;;;;0.80;0.50;;;;;;;-128.00;-1.00;-1.00;100089;1301;1004225;-28
2022/05/07 10:38:11;;;;;;;1.10;0.80;;;;;;;-128.00;-1.00;-1.00;100125;1303;1002966;-25
2022/05/07 10:40:47;;;;;;;2.70;0.90;;;;;;;-128.00;-1.00;-1.00;100096;1303;1003517;-27
2022/05/07 10:43:23;;;;;;;1.20;0.70;;;;;;;-128.00;-1.00;-1.00;100138;1303;1004253;-24
2022/05/07 10:45:57;;;;;;;3.50;0.70;;;;;;;-128.00;-1.00;-1.00;100100;1303;1003650;-28
2022/05/07 10:48:26;;;;;;;0.80;0.60;;;;;;;-128.00;-1.00;-1.00;100089;1302;1004013;-26
2022/05/07 10:51:00;;;;;;;1.00;0.80;;;;;;;-128.00;-1.00;-1.00;100158;1303;1004269;-24
2022/05/07 10:53:35;;;;;;;0.90;0.70;;;;;;;-128.00;-1.00;-1.00;100066;1302;1004147;-28
2022/05/07 10:56:11;;;;;;;3.70;0.70;;;;;;;-128.00;-1.00;-1.00;100085;1303;1003522;-25
2022/05/07 10:58:45;;;;;;;1.10;0.40;;;;;;;-128.00;-1.00;-1.00;100128;1303;1003604;-25
2022/05/07 11:01:16;;;;;;;1.90;0.70;;;;;;;-128.00;-1.00;-1.00;100104;1303;1003511;-29
2022/05/07 11:03:45;;;;;;;1.90;0.60;;;;;;;-128.00;-1.00;-1.00;100108;1303;1003801;-28
2022/05/07 11:06:15;;;;;;;1.40;0.50;;;;;;;-128.00;-1.00;-1.00;100126;1302;1004749;-28
2022/05/07 11:08:49;;;;;;;5.40;0.90;;;;;;;-128.00;-1.00;-1.00;100128;1303;1005157;-28
2022/05/07 11:11:18;;;;;;;2.20;0.80;;;;;;;-128.00;-1.00;-1.00;100111;1303;1004323;-25
2022/05/07 11:13:49;;;;;;;2.20;0.90;;;;;;;-128.00;-1.00;-1.00;100089;1303;1003479;-24
2022/05/07 11:16:19;;;;;;;2.30;0.50;;;;;;;-128.00;-1.00;-1.00;100057;1303;1003358;-28
2022/05/07 11:18:51;;;;;;;1.50;0.60;;;;;;;-128.00;-1.00;-1.00;100048;1303;1004301;-25
2022/05/07 11:21:21;;;;;;;1.90;0.70;;;;;;;-128.00;-1.00;-1.00;100183;1303;1004364;-28
2022/05/07 11:23:53;;;;;;;0.70;0.60;;;;;;;-128.00;-1.00;-1.00;100095;1303;1002907;-24
2022/05/07 11:26:23;;;;;;;2.40;0.60;;;;;;;-128.00;-1.00;-1.00;100095;1301;1004137;-28
2022/05/07 11:28:52;;;;;;;1.00;0.60;;;;;;;-128.00;-1.00;-1.00;100074;1303;1004966;-29
2022/05/07 11:31:25;;;;;;;1.00;0.50;;;;;;;-128.00;-1.00;-1.00;100156;1303;1005085;-24
2022/05/07 11:34:01;;;;;;;0.80;0.40;;;;;;;-128.00;-1.00;-1.00;100114;1303;1003448;-28
2022/05/07 11:36:31;;;;;;;1.50;0.90;;;;;;;-128.00;-1.00;-1.00;100201;1303;1003149;-24
2022/05/07 11:39:02;;;;;;;1.70;0.80;;;;;;;-128.00;-1.00;-1.00;100175;1301;1003149;-25
2022/05/07 11:41:32;;;;;;;0.70;0.60;;;;;;;-128.00;-1.00;-1.00;100145;1303;1003245;-28
2022/05/07 11:46:33;;;;;;;3.30;1.20;;;;;;;-128.00;-1.00;-1.00;100027;1303;1004747;-28
2022/05/07 11:49:05;;;;;;;2.30;1.10;;;;;;;-128.00;-1.00;-1.00;100108;1303;1003746;-28
2022/05/07 11:51:34;;;;;;;1.20;0.80;;;;;;;-128.00;-1.00;-1.00;100076;1303;1003512;-28
2022/05/07 11:54:08;;;;;;;4.30;1.00;;;;;;;-128.00;-1.00;-1.00;100083;1303;1003335;-24
2022/05/07 11:56:43;;;;;;;2.40;1.20;;;;;;;-128.00;-1.00;-1.00;100100;1303;1003912;-28
2022/05/07 11:59:14;;;;;;;1.10;0.80;;;;;;;-128.00;-1.00;-1.00;100059;1303;1003023;-24
2022/05/07 12:01:47;;;;;;;2.30;0.90;;;;;;;-128.00;-1.00;-1.00;100129;1303;1004983;-25
2022/05/07 12:04:16;;;;;;;7.40;1.00;;;;;;;-128.00;-1.00;-1.00;100068;1303;1003141;-24
2022/05/07 12:06:52;;;;;;;1.10;0.70;;;;;;;-128.00;-1.00;-1.00;100113;1303;1003262;-25
2022/05/07 12:09:21;;;;;;;1.80;0.90;;;;;;;-128.00;-1.00;-1.00;100135;1303;1003677;-25